sensor_id;sensor_type;location;lat;lon;timestamp;P1;durP1;ratioP1;P2;durP2;ratioP2
13163;SDS011;6647;53.688;10.746;2022-11-21T00:00:46;10.07;;;8.38;;
13163;SDS011;6647;53.688;10.746;2022-11-21T00:02:09;11.70;;;8.73;;
13163;SDS011;6647;53.688;10.746;2022-11-21T00:03:30;12.93;;;9.38;;
13163;SDS011;6647;53.688;10.746;2022-11-21T00:04:50;10.90;;;8.55;;
13163;SDS011;6647;53.688;10.746;2022-11-21T00:06:11;14.13;;;8.70;;
13163;SDS011;6647;53.688;10.746;2022-11-21T00:07:33;12.07;;;8.50;;
13163;SDS011;6647;53.688;10.746;2022-11-21T00:08:54;10.75;;;8.63;;
13163;SDS011;6647;53.688;10.746;2022-11-21T00:10:15;10.05;;;7.30;;
13163;SDS011;6647;53.688;10.746;2022-11-21T00:11:36;12.52;;;8.98;;
13163;SDS011;6647;53.688;10.746;2022-11-21T00:12:57;10.77;;;8.00;;
13163;SDS011;6647;53.688;10.746;2022-11-21T00:14:18;10.50;;;8.35;;
13163;SDS011;6647;53.688;10.746;2022-11-21T00:15:39;14.52;;;8.70;;
13163;SDS011;6647;53.688;10.746;2022-11-21T00:17:00;10.82;;;7.53;;
13163;SDS011;6647;53.688;10.746;2022-11-21T00:18:21;15.93;;;9.82;;
13163;SDS011;6647;53.688;10.746;2022-11-21T00:19:42;19.42;;;10.05;;
13163;SDS011;6647;53.688;10.746;2022-11-21T00:21:12;12.05;;;8.70;;
13163;SDS011;6647;53.688;10.746;2022-11-21T00:22:35;11.10;;;9.18;;
13163;SDS011;6647;53.688;10.746;2022-11-21T00:23:55;13.30;;;8.50;;
13163;SDS011;6647;53.688;10.746;2022-11-21T00:25:16;12.23;;;9.27;;
13163;SDS011;6647;53.688;10.746;2022-11-21T00:26:37;11.38;;;7.72;;
13163;SDS011;6647;53.688;10.746;2022-11-21T00:27:58;12.23;;;9.60;;
13163;SDS011;6647;53.688;10.746;2022-11-21T00:29:19;14.63;;;10.20;;
13163;SDS011;6647;53.688;10.746;2022-11-21T00:30:40;12.40;;;8.57;;
13163;SDS011;6647;53.688;10.746;2022-11-21T00:32:01;12.60;;;8.75;;
13163;SDS011;6647;53.688;10.746;2022-11-21T00:33:22;13.55;;;9.98;;
13163;SDS011;6647;53.688;10.746;2022-11-21T00:34:43;12.80;;;8.80;;
13163;SDS011;6647;53.688;10.746;2022-11-21T00:36:04;11.95;;;8.63;;
13163;SDS011;6647;53.688;10.746;2022-11-21T00:37:30;13.13;;;9.00;;
13163;SDS011;6647;53.688;10.746;2022-11-21T00:38:51;16.38;;;9.88;;
13163;SDS011;6647;53.688;10.746;2022-11-21T00:40:12;12.27;;;9.95;;
13163;SDS011;6647;53.688;10.746;2022-11-21T00:41:33;13.77;;;10.05;;
13163;SDS011;6647;53.688;10.746;2022-11-21T00:42:55;14.90;;;9.70;;
13163;SDS011;6647;53.688;10.746;2022-11-21T00:44:16;13.27;;;9.15;;
13163;SDS011;6647;53.688;10.746;2022-11-21T00:45:38;15.20;;;10.45;;
13163;SDS011;6647;53.688;10.746;2022-11-21T00:46:59;16.23;;;10.05;;
13163;SDS011;6647;53.688;10.746;2022-11-21T00:48:20;18.33;;;9.68;;
13163;SDS011;6647;53.688;10.746;2022-11-21T00:49:40;12.13;;;8.75;;
13163;SDS011;6647;53.688;10.746;2022-11-21T00:51:01;10.65;;;9.23;;
13163;SDS011;6647;53.688;10.746;2022-11-21T00:52:22;12.13;;;9.45;;
13163;SDS011;6647;53.688;10.746;2022-11-21T00:53:43;13.15;;;9.63;;
13163;SDS011;6647;53.688;10.746;2022-11-21T00:55:04;15.30;;;10.38;;
13163;SDS011;6647;53.688;10.746;2022-11-21T00:56:25;13.15;;;10.25;;
13163;SDS011;6647;53.688;10.746;2022-11-21T00:57:46;15.27;;;9.63;;
13163;SDS011;6647;53.688;10.746;2022-11-21T00:59:07;13.95;;;9.60;;
13163;SDS011;6647;53.688;10.746;2022-11-21T01:00:28;11.80;;;8.75;;
13163;SDS011;6647;53.688;10.746;2022-11-21T01:01:48;12.13;;;9.20;;
13163;SDS011;6647;53.688;10.746;2022-11-21T01:03:09;13.52;;;9.77;;
13163;SDS011;6647;53.688;10.746;2022-11-21T01:04:31;13.15;;;9.10;;
13163;SDS011;6647;53.688;10.746;2022-11-21T01:05:52;10.55;;;8.88;;
13163;SDS011;6647;53.688;10.746;2022-11-21T01:07:13;16.02;;;9.68;;
13163;SDS011;6647;53.688;10.746;2022-11-21T01:08:35;15.98;;;9.90;;
13163;SDS011;6647;53.688;10.746;2022-11-21T01:09:57;12.23;;;9.77;;
13163;SDS011;6647;53.688;10.746;2022-11-21T01:11:19;14.68;;;9.88;;
13163;SDS011;6647;53.688;10.746;2022-11-21T01:12:40;14.50;;;10.25;;
13163;SDS011;6647;53.688;10.746;2022-11-21T01:14:02;13.70;;;10.52;;
13163;SDS011;6647;53.688;10.746;2022-11-21T01:15:23;16.08;;;10.68;;
13163;SDS011;6647;53.688;10.746;2022-11-21T01:16:44;14.48;;;10.90;;
13163;SDS011;6647;53.688;10.746;2022-11-21T01:18:05;20.40;;;12.50;;
13163;SDS011;6647;53.688;10.746;2022-11-21T01:19:26;10.35;;;9.27;;
13163;SDS011;6647;53.688;10.746;2022-11-21T01:20:47;14.25;;;10.65;;
13163;SDS011;6647;53.688;10.746;2022-11-21T01:22:08;13.88;;;10.25;;
13163;SDS011;6647;53.688;10.746;2022-11-21T01:23:29;15.48;;;9.95;;
13163;SDS011;6647;53.688;10.746;2022-11-21T01:24:50;14.98;;;10.70;;
13163;SDS011;6647;53.688;10.746;2022-11-21T01:26:13;13.45;;;10.32;;
13163;SDS011;6647;53.688;10.746;2022-11-21T01:27:35;13.57;;;10.70;;
13163;SDS011;6647;53.688;10.746;2022-11-21T01:28:56;12.73;;;9.95;;
13163;SDS011;6647;53.688;10.746;2022-11-21T01:30:17;16.13;;;10.82;;
13163;SDS011;6647;53.688;10.746;2022-11-21T01:31:38;15.00;;;11.15;;
13163;SDS011;6647;53.688;10.746;2022-11-21T01:32:59;14.20;;;10.48;;
13163;SDS011;6647;53.688;10.746;2022-11-21T01:34:22;14.40;;;10.23;;
13163;SDS011;6647;53.688;10.746;2022-11-21T01:35:43;16.30;;;11.00;;
13163;SDS011;6647;53.688;10.746;2022-11-21T01:37:04;15.07;;;10.48;;
13163;SDS011;6647;53.688;10.746;2022-11-21T01:38:25;13.30;;;10.10;;
13163;SDS011;6647;53.688;10.746;2022-11-21T01:39:46;14.60;;;9.40;;
13163;SDS011;6647;53.688;10.746;2022-11-21T01:41:07;15.10;;;10.32;;
13163;SDS011;6647;53.688;10.746;2022-11-21T01:42:42;14.18;;;9.63;;
13163;SDS011;6647;53.688;10.746;2022-11-21T01:44:20;11.80;;;9.02;;
13163;SDS011;6647;53.688;10.746;2022-11-21T01:47:31;14.48;;;9.88;;
13163;SDS011;6647;53.688;10.746;2022-11-21T01:48:53;13.70;;;10.43;;
13163;SDS011;6647;53.688;10.746;2022-11-21T01:50:26;18.10;;;10.35;;
13163;SDS011;6647;53.688;10.746;2022-11-21T01:51:49;16.48;;;10.90;;
13163;SDS011;6647;53.688;10.746;2022-11-21T01:53:14;18.02;;;11.27;;
13163;SDS011;6647;53.688;10.746;2022-11-21T01:54:40;13.52;;;9.95;;
13163;SDS011;6647;53.688;10.746;2022-11-21T01:56:02;14.43;;;10.55;;
13163;SDS011;6647;53.688;10.746;2022-11-21T01:57:28;13.57;;;10.10;;
13163;SDS011;6647;53.688;10.746;2022-11-21T01:58:55;20.95;;;11.57;;
13163;SDS011;6647;53.688;10.746;2022-11-21T02:00:19;16.33;;;11.45;;
13163;SDS011;6647;53.688;10.746;2022-11-21T02:01:44;15.88;;;11.13;;
13163;SDS011;6647;53.688;10.746;2022-11-21T02:03:08;13.55;;;9.63;;
13163;SDS011;6647;53.688;10.746;2022-11-21T02:04:32;14.73;;;11.23;;
13163;SDS011;6647;53.688;10.746;2022-11-21T02:05:54;15.13;;;10.95;;
13163;SDS011;6647;53.688;10.746;2022-11-21T02:07:17;14.65;;;10.63;;
13163;SDS011;6647;53.688;10.746;2022-11-21T02:08:40;16.88;;;11.25;;
13163;SDS011;6647;53.688;10.746;2022-11-21T02:10:03;16.00;;;10.95;;
13163;SDS011;6647;53.688;10.746;2022-11-21T02:11:28;17.15;;;10.82;;
13163;SDS011;6647;53.688;10.746;2022-11-21T02:12:54;15.85;;;11.10;;
13163;SDS011;6647;53.688;10.746;2022-11-21T02:14:17;17.58;;;10.95;;
13163;SDS011;6647;53.688;10.746;2022-11-21T02:15:38;14.32;;;10.50;;
13163;SDS011;6647;53.688;10.746;2022-11-21T02:17:00;14.98;;;11.23;;
13163;SDS011;6647;53.688;10.746;2022-11-21T02:18:26;16.10;;;11.00;;
13163;SDS011;6647;53.688;10.746;2022-11-21T02:19:56;15.30;;;10.43;;
13163;SDS011;6647;53.688;10.746;2022-11-21T02:24:32;16.80;;;10.40;;
13163;SDS011;6647;53.688;10.746;2022-11-21T02:26:01;19.02;;;10.90;;
13163;SDS011;6647;53.688;10.746;2022-11-21T02:27:22;18.70;;;11.77;;
13163;SDS011;6647;53.688;10.746;2022-11-21T02:28:42;14.52;;;10.75;;
13163;SDS011;6647;53.688;10.746;2022-11-21T02:30:05;16.25;;;9.90;;
13163;SDS011;6647;53.688;10.746;2022-11-21T02:31:28;16.70;;;10.43;;
13163;SDS011;6647;53.688;10.746;2022-11-21T02:32:49;15.35;;;10.52;;
13163;SDS011;6647;53.688;10.746;2022-11-21T02:34:10;16.38;;;10.57;;
13163;SDS011;6647;53.688;10.746;2022-11-21T02:35:31;17.58;;;11.48;;
13163;SDS011;6647;53.688;10.746;2022-11-21T02:36:53;14.57;;;10.13;;
13163;SDS011;6647;53.688;10.746;2022-11-21T02:38:20;14.43;;;10.30;;
13163;SDS011;6647;53.688;10.746;2022-11-21T02:39:43;13.90;;;10.00;;
13163;SDS011;6647;53.688;10.746;2022-11-21T02:41:14;14.27;;;9.80;;
13163;SDS011;6647;53.688;10.746;2022-11-21T02:44:52;13.82;;;10.10;;
13163;SDS011;6647;53.688;10.746;2022-11-21T02:46:20;14.65;;;9.50;;
13163;SDS011;6647;53.688;10.746;2022-11-21T02:47:41;17.90;;;10.60;;
13163;SDS011;6647;53.688;10.746;2022-11-21T02:49:05;12.32;;;9.43;;
13163;SDS011;6647;53.688;10.746;2022-11-21T02:50:28;12.82;;;9.20;;
13163;SDS011;6647;53.688;10.746;2022-11-21T02:51:59;13.63;;;9.05;;
13163;SDS011;6647;53.688;10.746;2022-11-21T02:53:20;14.38;;;9.50;;
13163;SDS011;6647;53.688;10.746;2022-11-21T02:54:41;15.18;;;9.55;;
13163;SDS011;6647;53.688;10.746;2022-11-21T02:56:02;12.05;;;9.02;;
13163;SDS011;6647;53.688;10.746;2022-11-21T02:57:23;11.98;;;8.70;;
13163;SDS011;6647;53.688;10.746;2022-11-21T02:58:44;11.90;;;9.15;;
13163;SDS011;6647;53.688;10.746;2022-11-21T03:00:05;12.40;;;9.23;;
13163;SDS011;6647;53.688;10.746;2022-11-21T03:01:27;14.73;;;8.90;;
13163;SDS011;6647;53.688;10.746;2022-11-21T03:02:47;12.07;;;8.57;;
13163;SDS011;6647;53.688;10.746;2022-11-21T03:04:08;14.23;;;9.90;;
13163;SDS011;6647;53.688;10.746;2022-11-21T03:05:29;12.10;;;8.73;;
13163;SDS011;6647;53.688;10.746;2022-11-21T03:06:51;15.32;;;9.10;;
13163;SDS011;6647;53.688;10.746;2022-11-21T03:08:12;12.65;;;9.55;;
13163;SDS011;6647;53.688;10.746;2022-11-21T03:09:33;12.93;;;9.20;;
13163;SDS011;6647;53.688;10.746;2022-11-21T03:10:54;14.52;;;8.90;;
13163;SDS011;6647;53.688;10.746;2022-11-21T03:12:14;13.35;;;10.05;;
13163;SDS011;6647;53.688;10.746;2022-11-21T03:13:35;14.95;;;10.23;;
13163;SDS011;6647;53.688;10.746;2022-11-21T03:14:56;13.57;;;9.27;;
13163;SDS011;6647;53.688;10.746;2022-11-21T03:16:17;12.07;;;8.70;;
13163;SDS011;6647;53.688;10.746;2022-11-21T03:17:38;12.48;;;9.68;;
13163;SDS011;6647;53.688;10.746;2022-11-21T03:19:00;11.15;;;8.25;;
13163;SDS011;6647;53.688;10.746;2022-11-21T03:20:21;11.95;;;9.25;;
13163;SDS011;6647;53.688;10.746;2022-11-21T03:21:42;13.40;;;8.35;;
13163;SDS011;6647;53.688;10.746;2022-11-21T03:23:03;11.68;;;9.00;;
13163;SDS011;6647;53.688;10.746;2022-11-21T03:24:23;11.68;;;8.82;;
13163;SDS011;6647;53.688;10.746;2022-11-21T03:25:44;12.15;;;9.00;;
13163;SDS011;6647;53.688;10.746;2022-11-21T03:27:05;13.30;;;8.65;;
13163;SDS011;6647;53.688;10.746;2022-11-21T03:28:26;12.88;;;8.75;;
13163;SDS011;6647;53.688;10.746;2022-11-21T03:29:47;11.35;;;7.85;;
13163;SDS011;6647;53.688;10.746;2022-11-21T03:31:08;13.55;;;8.23;;
13163;SDS011;6647;53.688;10.746;2022-11-21T03:32:29;10.63;;;8.02;;
13163;SDS011;6647;53.688;10.746;2022-11-21T03:33:49;15.13;;;8.60;;
13163;SDS011;6647;53.688;10.746;2022-11-21T03:35:10;11.82;;;8.48;;
13163;SDS011;6647;53.688;10.746;2022-11-21T03:36:31;12.10;;;8.90;;
13163;SDS011;6647;53.688;10.746;2022-11-21T03:37:52;12.55;;;7.88;;
13163;SDS011;6647;53.688;10.746;2022-11-21T03:39:13;11.50;;;9.23;;
13163;SDS011;6647;53.688;10.746;2022-11-21T03:40:34;16.48;;;8.75;;
13163;SDS011;6647;53.688;10.746;2022-11-21T03:41:55;11.35;;;8.10;;
13163;SDS011;6647;53.688;10.746;2022-11-21T03:43:16;11.48;;;8.20;;
13163;SDS011;6647;53.688;10.746;2022-11-21T03:44:37;12.30;;;9.52;;
13163;SDS011;6647;53.688;10.746;2022-11-21T03:45:58;11.80;;;8.10;;
13163;SDS011;6647;53.688;10.746;2022-11-21T03:47:18;12.15;;;8.57;;
13163;SDS011;6647;53.688;10.746;2022-11-21T03:48:39;13.98;;;9.00;;
13163;SDS011;6647;53.688;10.746;2022-11-21T03:50:00;13.15;;;9.25;;
13163;SDS011;6647;53.688;10.746;2022-11-21T03:51:21;10.93;;;8.88;;
13163;SDS011;6647;53.688;10.746;2022-11-21T03:52:43;13.30;;;9.07;;
13163;SDS011;6647;53.688;10.746;2022-11-21T03:54:04;13.00;;;9.07;;
13163;SDS011;6647;53.688;10.746;2022-11-21T03:55:25;13.93;;;8.63;;
13163;SDS011;6647;53.688;10.746;2022-11-21T03:56:46;14.52;;;9.15;;
13163;SDS011;6647;53.688;10.746;2022-11-21T03:58:07;11.50;;;8.75;;
13163;SDS011;6647;53.688;10.746;2022-11-21T03:59:28;12.65;;;9.63;;
13163;SDS011;6647;53.688;10.746;2022-11-21T04:00:49;15.73;;;9.90;;
13163;SDS011;6647;53.688;10.746;2022-11-21T04:02:09;11.13;;;9.10;;
13163;SDS011;6647;53.688;10.746;2022-11-21T04:03:30;12.70;;;9.10;;
13163;SDS011;6647;53.688;10.746;2022-11-21T04:04:52;13.15;;;9.15;;
13163;SDS011;6647;53.688;10.746;2022-11-21T04:06:13;12.20;;;8.68;;
13163;SDS011;6647;53.688;10.746;2022-11-21T04:07:35;10.23;;;8.38;;
13163;SDS011;6647;53.688;10.746;2022-11-21T04:08:56;12.88;;;9.85;;
13163;SDS011;6647;53.688;10.746;2022-11-21T04:10:17;13.80;;;9.57;;
13163;SDS011;6647;53.688;10.746;2022-11-21T04:11:40;11.48;;;9.00;;
13163;SDS011;6647;53.688;10.746;2022-11-21T04:13:00;12.65;;;9.02;;
13163;SDS011;6647;53.688;10.746;2022-11-21T04:14:21;12.77;;;8.60;;
13163;SDS011;6647;53.688;10.746;2022-11-21T04:15:43;12.63;;;8.95;;
13163;SDS011;6647;53.688;10.746;2022-11-21T04:17:04;16.08;;;9.90;;
13163;SDS011;6647;53.688;10.746;2022-11-21T04:18:25;19.20;;;10.30;;
13163;SDS011;6647;53.688;10.746;2022-11-21T04:19:46;13.20;;;9.05;;
13163;SDS011;6647;53.688;10.746;2022-11-21T04:21:07;10.75;;;8.55;;
13163;SDS011;6647;53.688;10.746;2022-11-21T04:22:28;14.43;;;9.57;;
13163;SDS011;6647;53.688;10.746;2022-11-21T04:23:49;14.73;;;9.80;;
13163;SDS011;6647;53.688;10.746;2022-11-21T04:25:10;14.27;;;9.65;;
13163;SDS011;6647;53.688;10.746;2022-11-21T04:26:32;12.48;;;9.23;;
13163;SDS011;6647;53.688;10.746;2022-11-21T04:27:59;15.20;;;9.95;;
13163;SDS011;6647;53.688;10.746;2022-11-21T04:29:22;14.07;;;9.77;;
13163;SDS011;6647;53.688;10.746;2022-11-21T04:30:42;15.00;;;10.15;;
13163;SDS011;6647;53.688;10.746;2022-11-21T04:32:03;12.73;;;9.38;;
13163;SDS011;6647;53.688;10.746;2022-11-21T04:33:24;15.48;;;10.48;;
13163;SDS011;6647;53.688;10.746;2022-11-21T04:34:45;13.27;;;10.40;;
13163;SDS011;6647;53.688;10.746;2022-11-21T04:36:07;20.55;;;10.43;;
13163;SDS011;6647;53.688;10.746;2022-11-21T04:37:28;13.38;;;9.50;;
13163;SDS011;6647;53.688;10.746;2022-11-21T04:38:49;15.57;;;10.40;;
13163;SDS011;6647;53.688;10.746;2022-11-21T04:40:10;13.63;;;10.20;;
13163;SDS011;6647;53.688;10.746;2022-11-21T04:41:32;13.05;;;9.90;;
13163;SDS011;6647;53.688;10.746;2022-11-21T04:42:53;16.85;;;10.52;;
13163;SDS011;6647;53.688;10.746;2022-11-21T04:44:14;14.90;;;9.82;;
13163;SDS011;6647;53.688;10.746;2022-11-21T04:45:35;13.02;;;9.27;;
13163;SDS011;6647;53.688;10.746;2022-11-21T04:46:56;16.30;;;9.82;;
13163;SDS011;6647;53.688;10.746;2022-11-21T04:48:17;17.10;;;11.02;;
13163;SDS011;6647;53.688;10.746;2022-11-21T04:49:37;17.75;;;10.65;;
13163;SDS011;6647;53.688;10.746;2022-11-21T04:50:58;16.33;;;11.15;;
13163;SDS011;6647;53.688;10.746;2022-11-21T04:52:19;15.88;;;10.98;;
13163;SDS011;6647;53.688;10.746;2022-11-21T04:53:40;17.10;;;10.77;;
13163;SDS011;6647;53.688;10.746;2022-11-21T04:55:02;13.88;;;10.52;;
13163;SDS011;6647;53.688;10.746;2022-11-21T04:56:23;17.13;;;11.82;;
13163;SDS011;6647;53.688;10.746;2022-11-21T04:57:44;16.23;;;10.52;;
13163;SDS011;6647;53.688;10.746;2022-11-21T04:59:05;14.63;;;11.00;;
13163;SDS011;6647;53.688;10.746;2022-11-21T05:00:26;18.17;;;10.48;;
13163;SDS011;6647;53.688;10.746;2022-11-21T05:01:47;17.02;;;11.07;;
13163;SDS011;6647;53.688;10.746;2022-11-21T05:03:08;17.70;;;10.60;;
13163;SDS011;6647;53.688;10.746;2022-11-21T05:04:29;15.95;;;10.63;;
13163;SDS011;6647;53.688;10.746;2022-11-21T05:05:49;17.42;;;11.73;;
13163;SDS011;6647;53.688;10.746;2022-11-21T05:07:10;16.05;;;11.38;;
13163;SDS011;6647;53.688;10.746;2022-11-21T05:08:31;16.30;;;10.40;;
13163;SDS011;6647;53.688;10.746;2022-11-21T05:09:52;18.42;;;11.75;;
13163;SDS011;6647;53.688;10.746;2022-11-21T05:11:13;14.50;;;10.07;;
13163;SDS011;6647;53.688;10.746;2022-11-21T05:12:56;17.20;;;11.32;;
13163;SDS011;6647;53.688;10.746;2022-11-21T05:14:36;16.52;;;10.77;;
13163;SDS011;6647;53.688;10.746;2022-11-21T05:15:57;18.13;;;10.88;;
13163;SDS011;6647;53.688;10.746;2022-11-21T05:17:18;20.80;;;11.93;;
13163;SDS011;6647;53.688;10.746;2022-11-21T05:18:39;18.38;;;10.43;;
13163;SDS011;6647;53.688;10.746;2022-11-21T05:20:00;17.20;;;11.00;;
13163;SDS011;6647;53.688;10.746;2022-11-21T05:21:21;15.27;;;10.35;;
13163;SDS011;6647;53.688;10.746;2022-11-21T05:22:42;17.30;;;11.25;;
13163;SDS011;6647;53.688;10.746;2022-11-21T05:24:05;14.32;;;10.73;;
13163;SDS011;6647;53.688;10.746;2022-11-21T05:25:26;18.73;;;10.63;;
13163;SDS011;6647;53.688;10.746;2022-11-21T05:26:47;18.10;;;11.32;;
13163;SDS011;6647;53.688;10.746;2022-11-21T05:28:08;17.00;;;11.48;;
13163;SDS011;6647;53.688;10.746;2022-11-21T05:29:29;15.85;;;11.50;;
13163;SDS011;6647;53.688;10.746;2022-11-21T05:30:50;18.50;;;11.15;;
13163;SDS011;6647;53.688;10.746;2022-11-21T05:32:11;16.85;;;10.32;;
13163;SDS011;6647;53.688;10.746;2022-11-21T05:33:31;18.48;;;11.57;;
13163;SDS011;6647;53.688;10.746;2022-11-21T05:34:52;19.10;;;11.20;;
13163;SDS011;6647;53.688;10.746;2022-11-21T05:36:13;20.10;;;12.40;;
13163;SDS011;6647;53.688;10.746;2022-11-21T05:37:34;18.77;;;11.00;;
13163;SDS011;6647;53.688;10.746;2022-11-21T05:38:55;18.35;;;11.98;;
13163;SDS011;6647;53.688;10.746;2022-11-21T05:40:16;20.33;;;12.70;;
13163;SDS011;6647;53.688;10.746;2022-11-21T05:41:37;20.95;;;12.35;;
13163;SDS011;6647;53.688;10.746;2022-11-21T05:42:58;14.73;;;10.93;;
13163;SDS011;6647;53.688;10.746;2022-11-21T05:44:37;17.88;;;11.50;;
13163;SDS011;6647;53.688;10.746;2022-11-21T05:45:58;19.75;;;12.27;;
13163;SDS011;6647;53.688;10.746;2022-11-21T05:47:19;19.63;;;11.93;;
13163;SDS011;6647;53.688;10.746;2022-11-21T05:48:40;19.23;;;12.50;;
13163;SDS011;6647;53.688;10.746;2022-11-21T05:50:01;17.17;;;11.40;;
13163;SDS011;6647;53.688;10.746;2022-11-21T05:51:23;18.30;;;11.77;;
13163;SDS011;6647;53.688;10.746;2022-11-21T05:52:43;15.95;;;10.13;;
13163;SDS011;6647;53.688;10.746;2022-11-21T05:54:04;16.92;;;12.10;;
13163;SDS011;6647;53.688;10.746;2022-11-21T05:55:25;18.45;;;11.25;;
13163;SDS011;6647;53.688;10.746;2022-11-21T05:56:46;18.73;;;11.35;;
13163;SDS011;6647;53.688;10.746;2022-11-21T05:58:07;17.95;;;12.30;;
13163;SDS011;6647;53.688;10.746;2022-11-21T05:59:30;21.27;;;11.80;;
13163;SDS011;6647;53.688;10.746;2022-11-21T06:00:54;21.88;;;10.85;;
13163;SDS011;6647;53.688;10.746;2022-11-21T06:02:16;15.02;;;10.50;;
13163;SDS011;6647;53.688;10.746;2022-11-21T06:03:56;22.45;;;12.77;;
13163;SDS011;6647;53.688;10.746;2022-11-21T06:05:16;19.13;;;11.27;;
13163;SDS011;6647;53.688;10.746;2022-11-21T06:06:37;16.60;;;11.70;;
13163;SDS011;6647;53.688;10.746;2022-11-21T06:07:58;18.70;;;12.18;;
13163;SDS011;6647;53.688;10.746;2022-11-21T06:09:19;16.20;;;10.70;;
13163;SDS011;6647;53.688;10.746;2022-11-21T06:10:40;18.45;;;12.00;;
13163;SDS011;6647;53.688;10.746;2022-11-21T06:12:01;21.45;;;11.35;;
13163;SDS011;6647;53.688;10.746;2022-11-21T06:13:22;19.10;;;11.98;;
13163;SDS011;6647;53.688;10.746;2022-11-21T06:14:42;17.27;;;11.60;;
13163;SDS011;6647;53.688;10.746;2022-11-21T06:16:08;17.45;;;11.73;;
13163;SDS011;6647;53.688;10.746;2022-11-21T06:17:31;20.55;;;11.73;;
13163;SDS011;6647;53.688;10.746;2022-11-21T06:18:52;22.17;;;12.75;;
13163;SDS011;6647;53.688;10.746;2022-11-21T06:20:12;20.33;;;12.27;;
13163;SDS011;6647;53.688;10.746;2022-11-21T06:21:34;26.05;;;13.15;;
13163;SDS011;6647;53.688;10.746;2022-11-21T06:22:56;19.10;;;13.05;;
13163;SDS011;6647;53.688;10.746;2022-11-21T06:24:17;17.55;;;11.95;;
13163;SDS011;6647;53.688;10.746;2022-11-21T06:25:38;17.77;;;11.82;;
13163;SDS011;6647;53.688;10.746;2022-11-21T06:26:59;19.50;;;12.38;;
13163;SDS011;6647;53.688;10.746;2022-11-21T06:28:19;19.95;;;13.52;;
13163;SDS011;6647;53.688;10.746;2022-11-21T06:29:40;20.50;;;12.25;;
13163;SDS011;6647;53.688;10.746;2022-11-21T06:31:02;17.40;;;11.60;;
13163;SDS011;6647;53.688;10.746;2022-11-21T06:32:27;24.27;;;12.45;;
13163;SDS011;6647;53.688;10.746;2022-11-21T06:33:52;17.45;;;12.10;;
13163;SDS011;6647;53.688;10.746;2022-11-21T06:35:17;19.40;;;12.73;;
13163;SDS011;6647;53.688;10.746;2022-11-21T06:36:38;17.52;;;12.40;;
13163;SDS011;6647;53.688;10.746;2022-11-21T06:38:00;20.02;;;11.80;;
13163;SDS011;6647;53.688;10.746;2022-11-21T06:39:21;24.15;;;13.57;;
13163;SDS011;6647;53.688;10.746;2022-11-21T06:40:42;17.50;;;12.10;;
13163;SDS011;6647;53.688;10.746;2022-11-21T06:42:02;20.23;;;13.52;;
13163;SDS011;6647;53.688;10.746;2022-11-21T06:43:23;23.35;;;13.15;;
13163;SDS011;6647;53.688;10.746;2022-11-21T06:44:44;21.05;;;12.73;;
13163;SDS011;6647;53.688;10.746;2022-11-21T06:46:05;22.50;;;13.30;;
13163;SDS011;6647;53.688;10.746;2022-11-21T06:47:27;24.13;;;14.50;;
13163;SDS011;6647;53.688;10.746;2022-11-21T06:48:48;22.23;;;13.43;;
13163;SDS011;6647;53.688;10.746;2022-11-21T06:50:09;19.20;;;13.40;;
13163;SDS011;6647;53.688;10.746;2022-11-21T06:51:30;25.00;;;13.70;;
13163;SDS011;6647;53.688;10.746;2022-11-21T06:52:50;22.50;;;14.77;;
13163;SDS011;6647;53.688;10.746;2022-11-21T06:54:11;21.38;;;14.18;;
13163;SDS011;6647;53.688;10.746;2022-11-21T06:55:32;22.25;;;13.57;;
13163;SDS011;6647;53.688;10.746;2022-11-21T06:56:53;22.67;;;14.52;;
13163;SDS011;6647;53.688;10.746;2022-11-21T06:58:14;23.77;;;14.10;;
13163;SDS011;6647;53.688;10.746;2022-11-21T06:59:35;22.77;;;14.05;;
13163;SDS011;6647;53.688;10.746;2022-11-21T07:00:56;22.00;;;13.95;;
13163;SDS011;6647;53.688;10.746;2022-11-21T07:02:22;20.75;;;13.55;;
13163;SDS011;6647;53.688;10.746;2022-11-21T07:03:43;25.13;;;14.27;;
13163;SDS011;6647;53.688;10.746;2022-11-21T07:05:04;23.02;;;14.43;;
13163;SDS011;6647;53.688;10.746;2022-11-21T07:06:25;25.92;;;13.80;;
13163;SDS011;6647;53.688;10.746;2022-11-21T07:07:46;23.35;;;13.60;;
13163;SDS011;6647;53.688;10.746;2022-11-21T07:09:07;20.55;;;14.35;;
13163;SDS011;6647;53.688;10.746;2022-11-21T07:10:28;23.00;;;15.07;;
13163;SDS011;6647;53.688;10.746;2022-11-21T07:11:49;22.23;;;12.98;;
13163;SDS011;6647;53.688;10.746;2022-11-21T07:13:10;22.98;;;13.50;;
13163;SDS011;6647;53.688;10.746;2022-11-21T07:14:44;23.38;;;13.77;;
13163;SDS011;6647;53.688;10.746;2022-11-21T07:16:08;20.77;;;13.95;;
13163;SDS011;6647;53.688;10.746;2022-11-21T07:17:33;25.00;;;14.20;;
13163;SDS011;6647;53.688;10.746;2022-11-21T07:18:54;22.65;;;14.02;;
13163;SDS011;6647;53.688;10.746;2022-11-21T07:20:15;24.95;;;14.35;;
13163;SDS011;6647;53.688;10.746;2022-11-21T07:21:36;21.50;;;13.85;;
13163;SDS011;6647;53.688;10.746;2022-11-21T07:22:57;23.63;;;14.85;;
13163;SDS011;6647;53.688;10.746;2022-11-21T07:24:18;22.02;;;13.30;;
13163;SDS011;6647;53.688;10.746;2022-11-21T07:25:39;22.08;;;13.40;;
13163;SDS011;6647;53.688;10.746;2022-11-21T07:27:00;22.88;;;13.27;;
13163;SDS011;6647;53.688;10.746;2022-11-21T07:28:21;23.92;;;13.40;;
13163;SDS011;6647;53.688;10.746;2022-11-21T07:29:42;27.30;;;14.30;;
13163;SDS011;6647;53.688;10.746;2022-11-21T07:31:03;21.63;;;13.52;;
13163;SDS011;6647;53.688;10.746;2022-11-21T07:32:24;28.42;;;13.82;;
13163;SDS011;6647;53.688;10.746;2022-11-21T07:33:45;27.25;;;16.15;;
13163;SDS011;6647;53.688;10.746;2022-11-21T07:35:07;22.77;;;13.70;;
13163;SDS011;6647;53.688;10.746;2022-11-21T07:36:28;27.02;;;14.45;;
13163;SDS011;6647;53.688;10.746;2022-11-21T07:37:52;22.38;;;14.07;;
13163;SDS011;6647;53.688;10.746;2022-11-21T07:39:13;26.92;;;14.73;;
13163;SDS011;6647;53.688;10.746;2022-11-21T07:40:34;23.58;;;13.55;;
13163;SDS011;6647;53.688;10.746;2022-11-21T07:41:55;27.20;;;14.98;;
13163;SDS011;6647;53.688;10.746;2022-11-21T07:43:16;23.42;;;13.55;;
13163;SDS011;6647;53.688;10.746;2022-11-21T07:44:37;25.08;;;14.95;;
13163;SDS011;6647;53.688;10.746;2022-11-21T07:45:59;24.63;;;14.48;;
13163;SDS011;6647;53.688;10.746;2022-11-21T07:47:19;25.60;;;14.55;;
13163;SDS011;6647;53.688;10.746;2022-11-21T07:48:40;22.17;;;13.73;;
13163;SDS011;6647;53.688;10.746;2022-11-21T07:50:01;28.52;;;16.13;;
13163;SDS011;6647;53.688;10.746;2022-11-21T07:51:23;27.55;;;14.75;;
13163;SDS011;6647;53.688;10.746;2022-11-21T07:52:44;26.02;;;14.45;;
13163;SDS011;6647;53.688;10.746;2022-11-21T07:54:05;26.85;;;14.02;;
13163;SDS011;6647;53.688;10.746;2022-11-21T07:55:26;29.23;;;16.45;;
13163;SDS011;6647;53.688;10.746;2022-11-21T07:56:49;25.40;;;14.32;;
13163;SDS011;6647;53.688;10.746;2022-11-21T07:58:10;27.00;;;15.77;;
13163;SDS011;6647;53.688;10.746;2022-11-21T07:59:32;26.38;;;14.65;;
13163;SDS011;6647;53.688;10.746;2022-11-21T08:00:53;26.23;;;14.75;;
13163;SDS011;6647;53.688;10.746;2022-11-21T08:02:18;28.45;;;16.33;;
13163;SDS011;6647;53.688;10.746;2022-11-21T08:03:40;28.27;;;16.15;;
13163;SDS011;6647;53.688;10.746;2022-11-21T08:05:01;28.70;;;15.30;;
13163;SDS011;6647;53.688;10.746;2022-11-21T08:06:21;28.38;;;15.10;;
13163;SDS011;6647;53.688;10.746;2022-11-21T08:07:42;29.65;;;15.32;;
13163;SDS011;6647;53.688;10.746;2022-11-21T08:09:03;25.38;;;14.68;;